Orlando, FL (32829)

1:46 PM EDT on September 18, 2014 (GMT -0400)
Nova Preserve | Change Station
CLOSE
Current Station
Personal Weather Station
Location: Orlando, FL
Elevation: 85 ft
Nearby Weather Stations

Elev 85 ft 28.43 °N, 81.25 °W | Updated 4 seconds ago

Partly Cloudy
Partly Cloudy
89.3 °F
Feels Like 96 °F
N
3.0
Wind Variable Wind from ENE
Gusts 7.0 mph

Today
High -- | Low -- °F
--% Chance of Precip.
Yesterday
High -- | Low -- °F
Precip. -- in
7:11 AM 7:26 PM
Waning Crescent, 25% visible
Pressure 29.93 in
Visibility 10.0 miles
Clouds Scattered Clouds 3800 ft
Scattered Clouds 25000 ft
Heat Index 96 °F
Dew Point 71 °F
Humidity 55%
Rainfall 0.00 in
Snow Depth Not available.
UV 10 out of 12
Pollen 7.30 out of 12
Ozone Good
PM2.5 Good
Flu Activity Not available.
METAR KMCO 181653Z 06006KT 10SM SCT038 SCT250 31/22 A2993 RMK AO2 SLP135 T03110217

More Conditions Fewer Conditions

Pressure 29.93 in
Visibility 10.0 miles
Clouds Scattered Clouds 3800 ft
Scattered Clouds 25000 ft
Heat Index 96 °F
Dew Point 71 °F
Humidity 55%
Rainfall 0.00 in
Snow Depth Not available.
UV 10 out of 12
Pollen 7.30 out of 12
Ozone Good
PM2.5 Good
Flu Activity Not available.
METAR KMCO 181653Z 06006KT 10SM SCT038 SCT250 31/22 A2993 RMK AO2 SLP135 T03110217

More Conditions Fewer Conditions

10-Day Weather Forecast

Almanac

Astronomy

Sep. 18, 2014 Rise Set
Actual Time 7:11 AM EDT 7:26 PM EDT
Civil Twilight 6:47 AM EDT 7:49 PM EDT
Nautical Twilight 6:20 AM EDT 8:17 PM EDT
Astronomical Twilight 5:52 AM EDT 8:44 PM EDT
Moon 2:21 AM EDT 3:58 PM EDT
Length of Visible Light 13h 01m
Length of Day
12h 14m
Tomorrow will be 1m 41s shorter.
Waning Crescent, 25% of the Moon is Illuminated
Today
Waning Crescent
Sep 24
New
Oct 1
First Quarter
Oct 8
Full
Oct 15
Last Quarter

Today's Extremes

State Highs State Lows

Community

WunderPhotos

Upload Photos

1,754,409 photos uploaded!

Nearby

Air Quality

  Air Quality AQ Index Pollutant
Yesterday Good
PM2.5
Yesterday Good
OZONE
Current Good
OZONE
Current Good
PM2.5
Thursday Good
PM2.5

Snow Depth

Station Depth Elevation
No new snow has been reported.

Earthquake Activity

City Distance Mag. Time & Date
No recent earthquake activity has been reported nearby.
Minimum magnitude displayed is 2.5.

Coastal Water Temperatures

Place Temperature
Trident Pier, FL 84.9 °F
Fort Myers, FL 84.9 °F
Lake Worth, FL 84.9 °F

Nearby Weather Stations